Time;durP1;ratioP1;P1;durP2;ratioP2;P2;SDS_P1;SDS_P2;PMS_P1;PMS_P2;Temp;Humidity;BMP_temperature;BMP_pressure;BME280_temperature;BME280_humidity;BME280_pressure;Samples;Min_cycle;Max_cycle;Signal;HPM_P1;HPM_P2
2022/03/01 00:00:30;;;;;;;11.00;6.50;;;3.20;45.00;;;3.74;41.22;98807.09;6236380;23;20035;-37
2022/03/01 00:02:58;;;;;;;10.53;6.87;;;3.20;45.20;;;3.68;41.77;98799.56;6235463;23;20027;-37
2022/03/01 00:05:27;;;;;;;11.40;6.43;;;3.10;45.40;;;3.66;41.27;98793.53;6235385;23;20027;-37
2022/03/01 00:07:54;;;;;;;11.00;6.20;;;3.10;45.70;;;3.63;41.41;98797.19;6236907;23;20020;-37
2022/03/01 00:10:22;;;;;;;8.37;6.30;;;3.10;45.40;;;3.59;41.04;98795.69;6237735;23;20409;-37
2022/03/01 00:12:51;;;;;;;12.73;6.23;;;3.10;45.30;;;3.58;41.15;98793.97;6235238;23;20034;-37
2022/03/01 00:15:19;;;;;;;12.23;6.30;;;3.10;45.40;;;3.57;41.52;98791.41;6236202;23;20024;-37
2022/03/01 00:17:46;;;;;;;10.43;6.27;;;3.00;45.30;;;3.57;41.15;98791.41;6235184;23;20459;-37
2022/03/01 00:20:14;;;;;;;10.70;6.90;;;3.00;45.40;;;3.55;40.98;98802.06;6235767;23;20048;-37
2022/03/01 00:22:42;;;;;;;12.00;6.37;;;3.00;45.10;;;3.54;41.48;98793.28;6209830;23;20026;-37
2022/03/01 00:25:10;;;;;;;12.23;6.57;;;3.10;45.40;;;3.52;40.99;98800.44;6236681;23;20020;-37
2022/03/01 00:27:41;;;;;;;9.13;6.50;;;3.00;45.10;;;3.50;41.34;98799.69;6236723;23;20313;-37
2022/03/01 00:30:10;;;;;;;9.90;6.70;;;3.00;45.50;;;3.49;41.19;98797.13;6233829;23;20034;-37
2022/03/01 00:32:38;;;;;;;12.83;7.37;;;2.90;45.30;;;3.45;41.06;98806.16;6236578;23;20047;-37
2022/03/01 00:35:06;;;;;;;13.10;6.37;;;2.80;45.50;;;3.42;40.99;98804.53;6236629;23;20314;-37
2022/03/01 00:37:34;;;;;;;10.07;6.53;;;2.90;45.50;;;3.39;40.94;98794.19;6235702;23;20024;-37
2022/03/01 00:40:04;;;;;;;11.93;6.60;;;2.90;45.20;;;3.38;41.28;98803.03;6236300;23;20218;-37
2022/03/01 00:42:32;;;;;;;12.10;7.10;;;2.90;45.10;;;3.37;41.44;98798.69;6236535;23;20012;-37
2022/03/01 00:44:59;;;;;;;11.47;6.60;;;2.90;45.30;;;3.33;41.25;98800.66;6237393;23;20034;-38
2022/03/01 00:47:27;;;;;;;11.63;7.03;;;2.80;45.00;;;3.26;41.19;98796.69;6236403;23;20012;-37
2022/03/01 00:49:57;;;;;;;9.33;6.50;;;2.80;45.10;;;3.25;41.35;98797.59;6234015;23;20015;-38
2022/03/01 00:52:25;;;;;;;14.07;7.67;;;2.90;45.20;;;3.26;41.27;98795.84;6235851;23;20038;-37
2022/03/01 00:54:53;;;;;;;16.13;7.17;;;2.80;45.20;;;3.23;41.43;98796.84;6234266;23;20023;-38
2022/03/01 00:57:21;;;;;;;11.70;6.90;;;2.80;45.50;;;3.23;41.66;98796.00;6236098;23;20039;-37
2022/03/01 00:59:48;;;;;;;14.80;7.37;;;2.70;45.80;;;3.20;41.14;98780.38;6235200;23;20034;-38
2022/03/01 01:02:16;;;;;;;13.03;6.77;;;2.70;45.60;;;3.21;41.69;98788.19;6235962;23;20023;-37
2022/03/01 01:04:44;;;;;;;13.43;6.57;;;2.70;45.50;;;3.22;41.43;98783.75;6235021;23;20012;-37
2022/03/01 01:07:12;;;;;;;11.20;6.47;;;2.70;45.50;;;3.21;41.48;98782.09;6236381;23;20318;-37
2022/03/01 01:09:40;;;;;;;16.03;7.37;;;2.80;45.20;;;3.21;41.56;98790.81;6235998;23;20026;-37
2022/03/01 01:12:14;;;;;;;12.03;6.20;;;2.70;45.40;;;3.17;41.28;98778.78;6236015;23;20038;-37
2022/03/01 01:14:41;;;;;;;13.30;6.77;;;2.80;45.20;;;3.15;41.47;98780.66;6236135;23;20022;-38
2022/03/01 01:17:11;;;;;;;14.83;7.30;;;2.70;45.20;;;3.12;41.36;98773.78;6234126;23;20020;-37
2022/03/01 01:19:39;;;;;;;14.63;7.20;;;2.70;45.20;;;3.10;41.38;98765.13;6236851;23;20046;-37
2022/03/01 01:24:57;;;;;;;10.83;7.30;;;2.70;45.00;;;3.10;41.59;98759.00;6245364;23;20227;-37
2022/03/01 01:27:25;;;;;;;14.70;7.10;;;2.80;45.00;;;3.10;41.59;98761.63;6234758;23;20026;-37
2022/03/01 01:29:53;;;;;;;11.53;6.43;;;2.70;45.50;;;3.08;41.40;98764.38;6235770;23;20020;-37
2022/03/01 01:32:20;;;;;;;13.93;6.67;;;2.60;45.70;;;3.05;41.80;98767.16;6236569;23;20187;-37
2022/03/01 01:34:48;;;;;;;12.47;7.17;;;2.60;45.70;;;3.02;41.44;98761.22;6235226;23;20240;-37
2022/03/01 01:37:17;;;;;;;13.63;7.23;;;2.60;45.60;;;3.00;41.43;98763.94;6234867;23;20028;-37
2022/03/01 01:39:45;;;;;;;13.47;7.17;;;2.60;45.70;;;3.00;41.36;98760.47;6234695;23;20224;-37
2022/03/01 01:42:13;;;;;;;14.73;8.07;;;2.50;45.80;;;2.98;41.66;98763.16;6235274;23;20031;-37
2022/03/01 01:44:44;;;;;;;13.57;6.97;;;2.50;46.10;;;2.96;41.80;98754.53;6234817;23;20012;-37
2022/03/01 01:47:32;;;;;;;10.67;6.40;;;2.50;46.30;;;2.95;41.87;98758.09;6245735;23;20348;-38
2022/03/01 01:50:00;;;;;;;11.63;6.60;;;2.50;46.30;;;2.91;41.93;98756.56;6209034;23;20020;-37
2022/03/01 01:52:28;;;;;;;17.23;7.33;;;2.40;46.40;;;2.89;41.86;98754.03;6211149;23;20020;-37
2022/03/01 01:54:56;;;;;;;14.00;6.30;;;2.40;46.50;;;2.89;42.02;98754.03;6235205;23;20356;-37
2022/03/01 01:57:25;;;;;;;11.37;7.63;;;2.40;46.70;;;2.86;42.07;98755.97;6234596;23;20020;-38
2022/03/01 01:59:57;;;;;;;14.73;6.80;;;2.30;46.90;;;2.85;42.16;98759.53;6235169;23;20334;-37
2022/03/01 02:02:25;;;;;;;12.33;6.60;;;2.30;46.80;;;2.78;42.13;98760.81;6246610;23;20054;-37
2022/03/01 02:04:53;;;;;;;14.87;8.07;;;2.30;46.70;;;2.73;42.22;98759.31;6235996;23;20302;-38
2022/03/01 02:07:21;;;;;;;14.63;7.73;;;2.20;46.80;;;2.71;42.50;98750.63;6234373;23;20030;-37
2022/03/01 02:09:49;;;;;;;13.17;8.00;;;2.20;47.40;;;2.66;42.39;98749.19;6234728;23;20198;-37
2022/03/01 02:12:16;;;;;;;15.37;7.67;;;2.10;47.90;;;2.60;42.62;98760.91;6236822;23;20020;-37
2022/03/01 02:14:44;;;;;;;14.70;8.07;;;2.00;48.40;;;2.56;42.87;98754.97;6236102;23;20363;-37
2022/03/01 02:17:13;;;;;;;13.97;7.43;;;1.90;48.60;;;2.52;42.73;98760.44;6235556;23;20352;-37
2022/03/01 02:20:35;;;;;;;14.33;7.50;;;1.90;48.90;;;2.43;43.63;98758.34;6233721;23;20030;-37
2022/03/01 02:23:03;;;;;;;12.50;7.63;;;1.70;49.70;;;2.35;43.02;98764.00;6234826;23;20019;-38
2022/03/01 02:25:31;;;;;;;13.17;6.93;;;1.60;49.70;;;2.32;43.52;98767.63;6234552;23;20341;-37
2022/03/01 02:27:58;;;;;;;13.20;7.00;;;1.60;49.60;;;2.30;43.06;98756.34;6235266;23;20348;-37
2022/03/01 02:30:26;;;;;;;11.80;7.40;;;1.60;49.90;;;2.32;43.46;98759.75;6233576;23;20328;-38
2022/03/01 02:32:54;;;;;;;12.17;7.53;;;1.70;49.80;;;2.33;43.11;98763.25;6236826;23;20034;-37
2022/03/01 02:35:47;;;;;;;18.40;8.17;;;1.80;49.50;;;2.29;43.36;98767.81;6234600;23;20047;-37
2022/03/01 02:38:15;;;;;;;13.30;7.53;;;1.70;50.60;;;2.26;43.60;98756.59;6233842;23;20035;-37
2022/03/01 02:40:43;;;;;;;16.23;8.30;;;1.60;49.90;;;2.26;43.44;98756.59;6233317;23;20344;-37
2022/03/01 02:43:10;;;;;;;14.33;7.53;;;1.60;49.90;;;2.22;43.82;98757.72;6235015;23;20020;-37
2022/03/01 02:45:38;;;;;;;13.87;8.30;;;1.60;50.10;;;2.22;43.90;98755.06;6233700;23;20348;-37
2022/03/01 02:48:06;;;;;;;13.27;7.40;;;1.60;50.50;;;2.20;43.73;98752.53;6233834;23;20349;-37
2022/03/01 02:50:34;;;;;;;14.47;8.03;;;1.60;50.20;;;2.17;44.11;98745.66;6233934;23;20016;-37
2022/03/01 02:53:02;;;;;;;14.70;7.83;;;1.60;50.30;;;2.17;44.08;98743.03;6234961;23;20020;-37
2022/03/01 02:55:30;;;;;;;13.53;6.67;;;1.60;49.90;;;2.20;43.62;98736.75;6209666;23;20518;-37
2022/03/01 02:57:58;;;;;;;18.73;8.17;;;1.70;49.80;;;2.17;44.05;98744.78;6234079;23;20019;-37
2022/03/01 03:00:26;;;;;;;13.43;7.50;;;1.80;49.30;;;2.17;44.00;98735.16;6234657;23;20151;-37
2022/03/01 03:02:54;;;;;;;14.13;6.77;;;1.70;49.50;;;2.19;44.24;98739.47;6235590;23;20013;-38
2022/03/01 03:05:22;;;;;;;16.27;8.00;;;1.80;49.50;;;2.18;44.15;98738.63;6233515;23;20030;-38
2022/03/01 03:07:49;;;;;;;14.30;7.93;;;1.70;50.20;;;2.19;43.94;98740.34;6235316;23;20030;-38
2022/03/01 03:10:17;;;;;;;13.37;8.87;;;1.70;49.60;;;2.18;44.02;98741.25;6234751;23;20345;-37
2022/03/01 03:12:45;;;;;;;14.57;7.80;;;1.70;49.80;;;2.18;44.17;98741.25;6235888;23;20345;-37
2022/03/01 03:15:13;;;;;;;14.27;7.13;;;1.70;49.90;;;2.17;44.11;98739.53;6235102;23;20024;-38
2022/03/01 03:17:41;;;;;;;13.40;7.83;;;1.60;50.30;;;2.16;44.21;98748.38;6235787;23;20024;-38
2022/03/01 03:20:10;;;;;;;12.10;7.13;;;1.60;50.40;;;2.16;43.97;98743.94;6234005;23;20250;-37
2022/03/01 03:22:38;;;;;;;15.70;8.43;;;1.60;50.80;;;2.17;44.31;98747.41;6235371;23;20012;-37
2022/03/01 03:25:07;;;;;;;14.20;8.50;;;1.60;50.10;;;2.16;44.05;98743.13;6234950;23;20417;-37
2022/03/01 03:27:35;;;;;;;13.60;7.17;;;1.60;50.20;;;2.10;44.20;98748.69;6234670;23;20022;-37
2022/03/01 03:30:04;;;;;;;14.50;6.57;;;1.50;50.60;;;2.04;44.46;98744.63;6234788;23;20026;-37
2022/03/01 03:32:32;;;;;;;13.70;7.93;;;1.50;50.80;;;1.99;43.95;98749.25;6235540;23;20318;-37
2022/03/01 03:35:01;;;;;;;18.43;8.67;;;1.40;50.70;;;1.97;44.20;98753.72;6235330;23;20016;-37
2022/03/01 03:37:29;;;;;;;14.03;7.80;;;1.40;51.00;;;1.94;44.48;98753.91;6234851;23;20031;-37
2022/03/01 03:39:57;;;;;;;19.63;8.20;;;1.30;51.20;;;1.88;44.77;98751.59;6235510;23;20023;-37
2022/03/01 03:42:25;;;;;;;15.10;8.17;;;1.30;51.20;;;1.82;44.66;98749.28;6234491;23;20016;-37
2022/03/01 03:44:53;;;;;;;12.23;7.77;;;1.20;51.60;;;1.79;44.55;98749.47;6234340;23;20042;-37
2022/03/01 03:47:21;;;;;;;20.33;8.27;;;1.20;51.30;;;1.77;44.66;98733.78;6234800;23;20018;-37
2022/03/01 03:49:49;;;;;;;15.07;7.40;;;1.20;51.70;;;1.73;44.59;98742.75;6233954;23;20030;-37
2022/03/01 03:52:17;;;;;;;14.17;7.97;;;1.20;51.80;;;1.68;44.66;98739.50;6232946;23;20310;-37
2022/03/01 03:54:45;;;;;;;15.60;7.37;;;1.10;52.00;;;1.64;44.74;98740.59;6235057;23;20023;-37
2022/03/01 03:57:13;;;;;;;13.53;7.07;;;1.00;52.60;;;1.60;45.20;98739.88;6233542;23;20034;-37
2022/03/01 03:59:41;;;;;;;15.53;8.07;;;1.00;52.00;;;1.58;45.27;98736.50;6233988;23;20210;-37
2022/03/01 04:02:09;;;;;;;15.00;7.77;;;1.00;52.60;;;1.56;45.08;98733.09;6235209;23;20034;-37
2022/03/01 04:04:37;;;;;;;14.87;8.30;;;0.90;52.70;;;1.55;45.11;98741.88;6232279;23;20024;-37
2022/03/01 04:07:05;;;;;;;13.40;7.30;;;1.00;52.70;;;1.55;45.00;98745.38;6234854;23;20020;-37
2022/03/01 04:09:34;;;;;;;15.83;8.07;;;1.00;52.40;;;1.51;45.89;98735.97;6233961;23;20022;-38
2022/03/01 04:12:02;;;;;;;14.37;7.57;;;0.90;52.90;;;1.48;45.96;98741.34;6234857;23;20016;-38
2022/03/01 04:14:30;;;;;;;18.57;8.07;;;0.90;53.00;;;1.47;45.92;98737.03;6234045;23;20024;-38
2022/03/01 04:17:02;;;;;;;12.60;7.57;;;0.90;53.10;;;1.45;45.97;98736.25;6183542;23;20083;-37
2022/03/01 04:19:30;;;;;;;15.63;8.07;;;0.90;53.10;;;1.47;45.64;98736.19;6236017;23;20028;-37
2022/03/01 04:21:57;;;;;;;13.93;8.10;;;1.00;52.80;;;1.47;45.99;98742.28;6246664;23;20019;-37
2022/03/01 04:24:25;;;;;;;18.80;8.43;;;1.00;52.70;;;1.46;45.59;98737.13;6236263;23;20024;-38
2022/03/01 04:26:54;;;;;;;14.40;7.10;;;1.00;53.00;;;1.43;46.01;98730.22;6235983;23;20012;-37
2022/03/01 04:29:22;;;;;;;12.10;7.63;;;0.90;52.90;;;1.45;45.86;98731.00;6236504;23;20020;-37
2022/03/01 04:31:49;;;;;;;12.90;7.17;;;0.90;52.80;;;1.47;45.97;98738.81;6237310;23;20023;-37
2022/03/01 04:34:17;;;;;;;14.70;7.63;;;0.90;52.70;;;1.46;45.47;98726.63;6236032;23;20016;-37
2022/03/01 04:36:46;;;;;;;15.43;7.97;;;0.90;53.00;;;1.46;46.13;98726.63;6235406;23;20028;-37
2022/03/01 04:39:13;;;;;;;15.13;8.03;;;0.90;53.00;;;1.44;45.94;98728.47;6235444;23;20027;-37
2022/03/01 04:41:41;;;;;;;12.77;6.73;;;0.90;53.00;;;1.42;45.62;98728.56;6235952;23;20022;-37
2022/03/01 04:44:09;;;;;;;20.87;7.67;;;0.80;52.90;;;1.38;45.78;98725.22;6235542;23;20012;-38
2022/03/01 04:46:37;;;;;;;11.67;7.43;;;0.80;53.40;;;1.40;46.11;98727.78;6236949;23;20012;-37
2022/03/01 04:49:05;;;;;;;10.80;7.37;;;0.80;53.20;;;1.39;46.22;98715.56;6236872;23;20019;-37
2022/03/01 04:51:33;;;;;;;17.37;7.73;;;0.80;52.90;;;1.35;46.02;98712.25;6236708;23;20210;-37
2022/03/01 04:54:01;;;;;;;16.00;8.23;;;0.80;53.20;;;1.31;45.90;98715.97;6233935;23;20024;-38
2022/03/01 04:56:29;;;;;;;16.57;7.77;;;0.80;53.20;;;1.31;46.04;98720.38;6234199;23;20020;-37
2022/03/01 04:58:57;;;;;;;16.90;7.90;;;0.70;53.30;;;1.30;45.81;98716.91;6235306;23;20020;-37
2022/03/01 05:01:25;;;;;;;16.53;8.57;;;0.70;53.00;;;1.34;45.99;98721.06;6236890;23;20452;-37
2022/03/01 05:03:53;;;;;;;15.00;7.37;;;0.80;53.10;;;1.34;45.87;98714.97;6235572;23;20022;-37
2022/03/01 05:06:20;;;;;;;15.17;7.77;;;0.80;52.70;;;1.37;46.32;98720.03;6235945;23;20238;-37
2022/03/01 05:08:48;;;;;;;14.17;7.73;;;0.90;52.70;;;1.38;46.43;98725.22;6235665;23;20022;-37
2022/03/01 05:11:16;;;;;;;14.20;7.30;;;0.90;52.70;;;1.38;46.15;98719.13;6235852;23;20016;-37
2022/03/01 05:13:44;;;;;;;14.33;8.03;;;0.90;53.00;;;1.34;46.38;98721.06;6235839;23;20310;-37
2022/03/01 05:16:12;;;;;;;17.30;7.93;;;0.80;53.20;;;1.33;45.80;98724.59;6234145;23;20028;-38
2022/03/01 05:18:40;;;;;;;17.50;8.57;;;0.80;53.30;;;1.32;46.00;98730.78;6236654;23;20024;-37
2022/03/01 05:21:07;;;;;;;11.97;7.40;;;0.70;53.30;;;1.32;46.05;98725.53;6236679;23;20022;-38
2022/03/01 05:23:37;;;;;;;15.33;7.63;;;0.70;53.30;;;1.31;45.90;98720.38;6233392;23;20204;-37
2022/03/01 05:26:09;;;;;;;19.53;8.93;;;0.70;53.50;;;1.27;46.23;98716.19;6246128;23;20012;-37
2022/03/01 05:28:37;;;;;;;16.73;8.30;;;0.60;53.70;;;1.24;46.63;98718.97;6235086;23;20020;-37
2022/03/01 05:31:05;;;;;;;14.37;7.07;;;0.60;54.20;;;1.16;46.26;98709.72;6236722;23;20452;-37
2022/03/01 05:33:33;;;;;;;18.43;8.67;;;0.50;54.70;;;1.10;46.92;98710.00;6236232;23;20031;-37
2022/03/01 05:36:01;;;;;;;18.20;9.97;;;0.40;54.50;;;1.03;46.94;98708.63;6236256;23;20023;-37
2022/03/01 05:38:30;;;;;;;16.13;8.90;;;0.40;54.60;;;0.90;47.54;98710.16;6235680;23;20195;-38
2022/03/01 05:40:58;;;;;;;16.23;9.77;;;0.20;55.30;;;0.72;47.22;98715.34;6209586;23;20024;-37
2022/03/01 05:43:25;;;;;;;19.17;9.70;;;0.00;55.60;;;0.60;47.25;98723.78;6236044;23;20229;-37
2022/03/01 05:45:53;;;;;;;15.20;8.33;;;-0.10;56.10;;;0.57;47.68;98722.16;6235480;23;20027;-37
2022/03/01 05:48:21;;;;;;;15.27;7.70;;;-0.10;56.20;;;0.58;46.78;98731.75;6234577;23;20027;-37
2022/03/01 05:50:49;;;;;;;14.10;8.20;;;-0.10;56.10;;;0.56;47.13;98732.72;6235085;23;20237;-37
2022/03/01 05:53:17;;;;;;;15.97;8.63;;;0.00;55.90;;;0.55;47.43;98729.25;6234937;23;20016;-37
2022/03/01 05:55:45;;;;;;;15.33;7.90;;;0.00;56.00;;;0.54;47.97;98731.94;6235743;23;20331;-37
2022/03/01 05:58:13;;;;;;;19.43;8.23;;;-0.10;56.70;;;0.54;47.52;98735.44;6234832;23;20023;-37
2022/03/01 06:00:41;;;;;;;17.17;8.83;;;-0.10;56.50;;;0.55;47.89;98736.28;6233111;23;20020;-37
2022/03/01 06:03:10;;;;;;;14.87;7.97;;;0.00;56.10;;;0.54;48.18;98735.44;6235421;23;20027;-37
2022/03/01 06:05:38;;;;;;;18.13;8.97;;;0.00;57.00;;;0.52;47.79;98726.75;6235313;23;20018;-37
2022/03/01 06:08:05;;;;;;;17.27;9.00;;;-0.10;56.60;;;0.53;48.17;98731.09;6234302;23;20024;-37
2022/03/01 06:10:33;;;;;;;16.97;8.87;;;0.00;57.00;;;0.53;47.77;98731.09;6208912;23;20024;-37
2022/03/01 06:13:01;;;;;;;19.40;9.80;;;0.00;56.60;;;0.54;48.15;98738.03;6235559;23;20020;-37
2022/03/01 06:15:29;;;;;;;18.67;10.80;;;0.00;56.20;;;0.53;47.45;98738.13;6234165;23;20023;-37
2022/03/01 06:17:57;;;;;;;21.93;11.67;;;0.00;55.70;;;0.53;47.22;98738.13;6234778;23;20024;-36
2022/03/01 06:20:25;;;;;;;19.83;12.50;;;0.00;56.60;;;0.52;47.24;98737.25;6235169;23;20024;-37
2022/03/01 06:22:53;;;;;;;22.97;12.27;;;0.00;56.00;;;0.53;48.01;98736.34;6209414;23;20020;-37
2022/03/01 06:25:21;;;;;;;14.33;9.57;;;0.00;56.20;;;0.51;48.05;98753.06;6234929;23;20012;-37
2022/03/01 06:27:52;;;;;;;16.07;8.90;;;-0.10;56.20;;;0.37;48.22;98751.91;6234942;23;20024;-37
2022/03/01 06:30:20;;;;;;;18.80;8.83;;;-0.20;56.70;;;0.24;48.19;98747.31;6234262;23;20318;-37
2022/03/01 06:32:48;;;;;;;18.30;9.70;;;-0.30;57.10;;;0.19;48.27;98755.38;6236157;23;20218;-38
2022/03/01 06:35:16;;;;;;;18.67;8.40;;;-0.40;57.30;;;0.18;48.42;98757.13;6235473;23;20226;-37
2022/03/01 06:37:49;;;;;;;17.90;9.37;;;-0.30;57.10;;;0.23;47.94;98770.03;6245052;23;20012;-36
2022/03/01 06:40:20;;;;;;;19.07;10.50;;;-0.30;57.10;;;0.30;47.81;98768.81;6244206;23;20018;-37
2022/03/01 06:42:49;;;;;;;13.53;8.67;;;-0.20;57.20;;;0.35;48.08;98766.00;6206832;23;20016;-37
2022/03/01 06:45:17;;;;;;;19.20;8.90;;;-0.10;57.40;;;0.38;48.45;98771.94;6234153;23;20314;-37
2022/03/01 06:47:45;;;;;;;16.67;8.47;;;-0.10;57.50;;;0.39;48.86;98770.19;6235318;23;20018;-37
2022/03/01 06:50:15;;;;;;;15.97;8.37;;;-0.10;56.90;;;0.40;48.89;98771.88;6234431;23;20031;-37
2022/03/01 06:52:43;;;;;;;17.63;8.67;;;-0.10;57.00;;;0.43;48.94;98771.75;6230257;23;20027;-37
2022/03/01 06:55:11;;;;;;;14.10;8.07;;;0.00;56.70;;;0.45;48.05;98777.78;6235667;23;20020;-38
2022/03/01 06:57:43;;;;;;;14.87;7.57;;;0.00;56.80;;;0.50;48.05;98775.78;6235188;23;20031;-37
2022/03/01 07:00:12;;;;;;;13.37;7.73;;;0.10;57.00;;;0.52;48.51;98776.56;6233339;23;20207;-38
2022/03/01 07:02:41;;;;;;;14.10;7.50;;;0.10;56.60;;;0.56;48.52;98788.63;6236290;23;20034;-38
2022/03/01 07:05:13;;;;;;;16.83;8.27;;;0.10;56.50;;;0.58;48.07;98789.41;6234814;23;20018;-37
2022/03/01 07:07:41;;;;;;;14.87;7.67;;;0.20;56.40;;;0.61;48.58;98796.25;6232038;23;20016;-37
2022/03/01 07:10:12;;;;;;;13.97;7.67;;;0.20;56.20;;;0.64;48.68;98800.50;6235161;23;20012;-37
2022/03/01 07:12:42;;;;;;;15.43;7.97;;;0.20;56.00;;;0.66;48.34;98799.53;6235224;23;20026;-38
2022/03/01 07:15:11;;;;;;;15.20;8.03;;;0.20;56.00;;;0.69;47.88;98801.97;6234029;23;20020;-37
2022/03/01 07:17:45;;;;;;;14.07;7.68;;;0.20;55.80;;;0.72;47.94;98808.88;6233607;23;20027;-37
2022/03/01 07:20:14;;;;;;;15.23;7.57;;;0.30;55.50;;;0.77;47.84;98807.72;6232871;23;20024;-37
2022/03/01 07:22:42;;;;;;;15.13;7.43;;;0.30;54.90;;;0.82;47.93;98811.91;6236950;23;20038;-38
2022/03/01 07:25:11;;;;;;;14.77;7.97;;;0.40;54.80;;;0.82;48.09;98815.38;6233439;23;20024;-38
2022/03/01 07:27:50;;;;;;;12.87;7.13;;;0.40;54.90;;;0.84;48.56;98807.47;6234360;23;20364;-37
2022/03/01 07:30:25;;;;;;;13.33;7.43;;;0.40;54.90;;;0.87;48.24;98812.53;6243669;23;20012;-38
2022/03/01 07:32:56;;;;;;;13.00;7.67;;;0.50;54.90;;;0.89;48.14;98808.94;6245509;23;20318;-38
2022/03/01 07:35:25;;;;;;;14.83;8.63;;;0.50;54.80;;;0.94;47.89;98811.34;6244937;23;20334;-38
2022/03/01 07:37:54;;;;;;;14.87;7.80;;;0.50;54.70;;;0.98;48.32;98811.09;6234453;23;20027;-37
2022/03/01 07:40:25;;;;;;;17.53;8.30;;;0.60;54.80;;;1.01;47.90;98810.13;6233828;23;20020;-37
2022/03/01 07:42:54;;;;;;;15.90;7.90;;;0.60;54.90;;;1.05;48.28;98805.56;6242021;23;20205;-37
2022/03/01 07:45:22;;;;;;;17.03;8.27;;;0.60;55.10;;;1.09;48.48;98815.84;6234337;23;20345;-38
2022/03/01 07:47:52;;;;;;;15.03;8.10;;;0.70;55.00;;;1.13;47.75;98808.69;6234086;23;20019;-38
2022/03/01 07:50:20;;;;;;;14.87;7.90;;;0.70;55.00;;;1.14;48.48;98811.25;6234772;23;20012;-37
2022/03/01 07:52:52;;;;;;;17.30;8.13;;;0.70;55.30;;;1.17;48.50;98815.50;6235192;23;20012;-37
2022/03/01 07:55:21;;;;;;;13.67;7.50;;;0.80;55.10;;;1.20;48.42;98811.84;6236091;23;20030;-37
2022/03/01 07:57:51;;;;;;;16.17;8.97;;;0.80;55.30;;;1.20;48.50;98811.84;6244894;23;20384;-37
2022/03/01 08:00:19;;;;;;;14.73;8.00;;;0.80;55.80;;;1.23;48.62;98809.94;6236401;23;20026;-36
2022/03/01 08:02:47;;;;;;;13.63;7.33;;;0.80;55.00;;;1.27;48.46;98805.41;6236121;23;20397;-36
2022/03/01 08:05:15;;;;;;;18.93;8.30;;;0.90;55.10;;;1.31;47.99;98801.69;6235073;23;20020;-36
2022/03/01 08:07:49;;;;;;;14.05;7.70;;;1.00;54.90;;;1.37;47.71;98806.63;6234371;23;20020;-36
2022/03/01 08:10:18;;;;;;;20.60;8.93;;;1.00;54.80;;;1.39;47.96;98802.16;6236210;23;20307;-36
2022/03/01 08:12:46;;;;;;;13.87;8.23;;;1.00;54.60;;;1.39;47.84;98799.53;6236871;23;20024;-36
2022/03/01 08:15:14;;;;;;;14.67;7.30;;;1.00;54.70;;;1.44;48.25;98801.97;6236315;23;20022;-36
2022/03/01 08:17:55;;;;;;;17.00;8.33;;;1.10;54.30;;;1.45;47.90;98801.03;6237864;23;20015;-36
2022/03/01 08:20:23;;;;;;;14.27;7.63;;;1.10;54.30;;;1.47;47.82;98799.16;6234365;23;20028;-36
2022/03/01 08:22:51;;;;;;;17.17;8.37;;;1.10;54.30;;;1.52;47.79;98794.53;6237436;23;20028;-37
2022/03/01 08:25:20;;;;;;;13.90;7.63;;;1.20;53.70;;;1.56;47.87;98790.84;6235850;23;20027;-36
2022/03/01 08:27:48;;;;;;;16.10;7.67;;;1.20;53.60;;;1.61;47.73;98801.97;6236937;23;20019;-36
2022/03/01 08:30:17;;;;;;;15.53;7.97;;;1.30;53.20;;;1.67;47.71;98796.41;6237786;23;20038;-36
2022/03/01 08:32:46;;;;;;;16.23;7.97;;;1.30;52.50;;;1.71;47.34;98794.47;6236614;23;20334;-36
2022/03/01 08:35:13;;;;;;;16.60;8.70;;;1.40;52.70;;;1.73;47.39;98790.00;6235019;23;20043;-37
2022/03/01 08:37:41;;;;;;;13.40;7.50;;;1.40;52.60;;;1.74;46.87;98783.81;6235931;23;20016;-37
2022/03/01 08:40:13;;;;;;;13.30;8.20;;;1.40;52.20;;;1.80;47.11;98790.53;6236191;23;20028;-37
2022/03/01 08:42:42;;;;;;;13.67;7.70;;;1.50;52.20;;;1.84;47.16;98789.44;6246756;23;20030;-37
2022/03/01 08:45:10;;;;;;;15.20;8.43;;;1.50;51.90;;;1.86;47.05;98792.81;6208119;23;20226;-37
2022/03/01 08:47:41;;;;;;;14.47;8.10;;;1.60;52.20;;;1.91;46.91;98790.84;6236197;23;20012;-37
2022/03/01 08:50:10;;;;;;;17.13;8.57;;;1.60;52.30;;;1.94;46.22;98790.69;6235487;23;20636;-37
2022/03/01 08:53:00;;;;;;;12.23;7.93;;;1.70;51.60;;;1.98;46.80;98773.84;6246709;23;20214;-37
2022/03/01 08:55:28;;;;;;;12.17;7.23;;;1.80;51.60;;;2.05;46.67;98783.06;6235191;23;20050;-37
2022/03/01 08:57:57;;;;;;;12.40;7.13;;;1.80;51.30;;;2.09;46.67;98774.09;6235847;23;20031;-36
2022/03/01 09:00:27;;;;;;;14.07;7.77;;;1.80;51.40;;;2.12;46.85;98773.94;6233140;23;20024;-36
2022/03/01 09:02:56;;;;;;;14.03;7.60;;;1.90;51.60;;;2.20;47.10;98770.06;6235686;23;20023;-37
2022/03/01 09:05:26;;;;;;;11.77;6.70;;;1.90;51.70;;;2.23;46.67;98772.53;6234082;23;20214;-37
2022/03/01 09:07:54;;;;;;;12.20;6.80;;;2.00;51.40;;;2.26;46.55;98770.59;6235041;23;20026;-37
2022/03/01 09:10:23;;;;;;;13.17;7.20;;;2.00;51.00;;;2.33;46.52;98781.63;6236321;23;20018;-36
2022/03/01 09:12:56;;;;;;;12.77;7.63;;;2.10;50.90;;;2.35;45.94;98774.53;6234689;23;20024;-36
2022/03/01 09:15:26;;;;;;;12.30;7.83;;;2.10;50.10;;;2.39;45.86;98772.59;6234981;23;20022;-36
2022/03/01 09:17:53;;;;;;;14.20;7.87;;;2.20;49.90;;;2.43;45.85;98774.94;6235622;23;20344;-36
2022/03/01 09:20:21;;;;;;;11.83;6.93;;;2.20;49.90;;;2.50;45.84;98775.44;6234238;23;20030;-36
2022/03/01 09:22:50;;;;;;;14.93;8.50;;;2.30;50.00;;;2.55;45.63;98776.91;6235384;23;20351;-36
2022/03/01 09:25:17;;;;;;;14.13;7.53;;;2.30;49.60;;;2.61;45.84;98774.88;6236254;23;20026;-36
2022/03/01 09:27:45;;;;;;;16.43;8.43;;;2.40;49.70;;;2.64;45.74;98772.09;6235915;23;20179;-36
2022/03/01 09:30:13;;;;;;;13.70;7.73;;;2.40;49.20;;;2.66;45.15;98776.34;6234510;23;20314;-36
2022/03/01 09:32:41;;;;;;;13.77;7.53;;;2.50;49.00;;;2.72;45.21;98783.03;6235587;23;20012;-37
2022/03/01 09:35:09;;;;;;;12.77;7.90;;;2.50;49.20;;;2.77;45.73;98775.72;6233717;23;20316;-36
2022/03/01 09:37:39;;;;;;;15.73;8.20;;;2.50;48.90;;;2.84;45.32;98777.09;6234016;23;20030;-37
2022/03/01 09:40:09;;;;;;;15.70;7.77;;;2.60;48.90;;;2.88;45.22;98765.47;6209029;23;20237;-36
2022/03/01 09:42:38;;;;;;;14.47;7.93;;;2.70;48.70;;;2.90;44.67;98758.34;6236955;23;20302;-37
2022/03/01 09:45:07;;;;;;;14.37;7.80;;;2.80;48.00;;;2.95;44.64;98760.72;6233232;23;20016;-36
2022/03/01 09:47:36;;;;;;;16.47;7.63;;;2.80;47.70;;;3.01;44.87;98763.00;6235144;23;20329;-37
2022/03/01 09:50:07;;;;;;;14.10;7.40;;;2.80;48.20;;;3.05;44.43;98759.25;6235407;23;20027;-36
2022/03/01 09:52:37;;;;;;;14.20;8.80;;;2.90;47.80;;;3.08;44.41;98758.22;6204623;23;20030;-37
2022/03/01 09:55:06;;;;;;;14.23;8.00;;;2.90;47.90;;;3.11;44.31;98756.28;6236344;23;20031;-36
2022/03/01 09:57:37;;;;;;;13.23;7.87;;;2.90;47.90;;;3.14;43.99;98755.25;6234073;23;20188;-36
2022/03/01 10:00:07;;;;;;;16.07;7.30;;;3.00;47.30;;;3.19;44.36;98747.94;6234598;23;20016;-36
2022/03/01 10:02:43;;;;;;;15.43;7.33;;;3.00;47.40;;;3.20;43.17;98744.41;6245737;23;20510;-37
2022/03/01 10:05:14;;;;;;;13.03;6.83;;;3.00;46.90;;;3.27;44.39;98755.41;6209342;23;20030;-36
2022/03/01 10:07:46;;;;;;;13.43;7.20;;;3.10;48.00;;;3.29;43.47;98754.38;6235466;23;20027;-36
2022/03/01 10:10:19;;;;;;;16.57;7.70;;;3.20;46.30;;;3.38;43.82;98763.53;6234397;23;20016;-36
2022/03/01 10:12:55;;;;;;;11.57;6.95;;;3.20;46.60;;;3.41;43.06;98751.97;6233703;23;20322;-36
2022/03/01 10:15:29;;;;;;;10.43;6.63;;;3.30;46.00;;;3.45;43.65;98748.22;6243651;23;20322;-36
2022/03/01 10:17:57;;;;;;;17.77;7.07;;;3.30;46.40;;;3.51;43.68;98751.38;6233876;23;20352;-37
2022/03/01 10:20:25;;;;;;;11.33;7.73;;;3.30;46.80;;;3.55;43.86;98749.41;6232664;23;20020;-36
2022/03/01 10:22:57;;;;;;;16.73;7.43;;;3.40;46.50;;;3.59;42.96;98750.91;6233254;23;20020;-36
2022/03/01 10:25:26;;;;;;;12.43;7.47;;;3.50;45.90;;;3.65;43.43;98732.13;6206179;23;20014;-37
2022/03/01 10:27:55;;;;;;;14.03;8.67;;;3.50;46.00;;;3.68;43.66;98739.84;6235141;23;20012;-36
2022/03/01 10:30:34;;;;;;;11.87;6.87;;;3.50;46.00;;;3.73;42.87;98737.75;6232979;23;20295;-36
2022/03/01 10:33:08;;;;;;;12.70;7.60;;;3.60;45.90;;;3.77;43.13;98743.69;6235784;23;20027;-36
2022/03/01 10:35:38;;;;;;;12.27;7.17;;;3.60;44.90;;;3.81;42.74;98731.19;6244381;23;20200;-37